createdAt,value
2024-02-15T00:01:28.790Z,9.81
2024-02-15T00:04:30.794Z,9.80
2024-02-15T00:07:32.739Z,9.76
2024-02-15T00:10:35.617Z,9.75
2024-02-15T00:13:37.848Z,9.77
2024-02-15T00:16:40.935Z,9.77
2024-02-15T00:19:43.527Z,9.80
2024-02-15T00:22:45.432Z,9.84
2024-02-15T00:25:47.259Z,9.84
2024-02-15T00:28:50.534Z,9.84
2024-02-15T00:31:53.789Z,9.87
2024-02-15T00:34:56.147Z,9.85
2024-02-15T00:37:58.680Z,9.83
2024-02-15T00:41:00.357Z,9.80
2024-02-15T00:44:02.114Z,9.86
2024-02-15T00:47:06.272Z,9.86
2024-02-15T00:50:09.023Z,9.84
2024-02-15T00:53:10.897Z,9.90
2024-02-15T00:56:12.714Z,9.91
2024-02-15T00:59:14.397Z,9.88
2024-02-15T01:02:19.207Z,9.85
2024-02-15T01:05:21.392Z,9.86
2024-02-15T01:08:23.210Z,9.90
2024-02-15T01:11:25.001Z,9.87
2024-02-15T01:14:31.247Z,9.87
2024-02-15T01:17:34.579Z,9.86
2024-02-15T01:20:37.454Z,9.87
2024-02-15T01:23:39.507Z,9.86
2024-02-15T01:26:41.261Z,9.86
2024-02-15T01:29:43.971Z,9.90
2024-02-15T01:32:47.286Z,9.89
2024-02-15T01:35:49.775Z,9.86
2024-02-15T01:38:51.904Z,9.85
2024-02-15T01:41:57.009Z,9.86
2024-02-15T01:44:58.888Z,9.83
2024-02-15T01:48:05.090Z,9.83
2024-02-15T01:51:08.274Z,9.86
2024-02-15T01:54:10.392Z,9.86
2024-02-15T01:57:12.561Z,9.85
2024-02-15T02:00:15.147Z,9.86
2024-02-15T02:03:19.020Z,9.87
2024-02-15T02:06:20.763Z,9.87
2024-02-15T02:09:23.284Z,9.87
2024-02-15T02:12:28.879Z,9.87
2024-02-15T02:15:32.644Z,9.87
2024-02-15T02:18:36.100Z,9.86
2024-02-15T02:21:39.909Z,9.90
2024-02-15T02:24:50.100Z,9.91
2024-02-15T02:27:53.227Z,9.90
2024-02-15T02:30:55.009Z,9.90
2024-02-15T02:33:59.903Z,9.87
2024-02-15T02:37:03.806Z,9.86
2024-02-15T02:40:06.157Z,9.87
2024-02-15T02:43:09.420Z,9.87
2024-02-15T02:46:11.915Z,9.88
2024-02-15T02:49:13.860Z,9.89
2024-02-15T02:52:15.771Z,9.90
2024-02-15T02:55:17.759Z,9.90
2024-02-15T02:58:20.922Z,9.90
2024-02-15T03:01:23.722Z,9.90
2024-02-15T03:04:25.580Z,9.86
2024-02-15T03:07:27.917Z,9.86
2024-02-15T03:10:29.612Z,9.86
2024-02-15T03:13:32.697Z,9.90
2024-02-15T03:16:37.308Z,9.91
2024-02-15T03:19:39.099Z,9.91
2024-02-15T03:22:40.817Z,9.92
2024-02-15T03:25:42.780Z,9.91
2024-02-15T03:28:45.974Z,9.91
2024-02-15T03:31:49.016Z,9.88
2024-02-15T03:34:50.721Z,9.89
2024-02-15T03:37:52.779Z,9.92
2024-02-15T03:40:55.868Z,9.91
2024-02-15T03:44:00.429Z,9.91
2024-02-15T03:47:02.212Z,9.95
2024-02-15T03:50:04.452Z,9.96
2024-02-15T03:53:09.495Z,9.99
2024-02-15T03:56:11.363Z,9.96
2024-02-15T03:59:14.559Z,9.97
2024-02-15T04:02:16.348Z,10.00
2024-02-15T04:05:19.905Z,10.01
2024-02-15T04:08:22.093Z,10.01
2024-02-15T04:11:23.734Z,10.01
2024-02-15T04:14:26.789Z,10.02
2024-02-15T04:17:28.606Z,10.03
2024-02-15T04:20:30.583Z,10.04
2024-02-15T04:23:33.123Z,10.05
2024-02-15T04:26:34.968Z,10.06
2024-02-15T04:29:41.294Z,10.07
2024-02-15T04:32:43.042Z,10.06
2024-02-15T04:35:45.217Z,10.06
2024-02-15T04:38:51.457Z,10.05
2024-02-15T04:41:53.388Z,10.04
2024-02-15T04:44:57.649Z,10.06
2024-02-15T04:48:03.035Z,10.08
2024-02-15T04:51:05.266Z,10.06
2024-02-15T04:54:08.411Z,10.08
2024-02-15T04:57:13.095Z,10.11
2024-02-15T05:00:16.991Z,10.08
2024-02-15T05:03:18.789Z,10.10
2024-02-15T05:06:20.534Z,10.08
2024-02-15T05:09:23.929Z,10.07
2024-02-15T05:12:25.785Z,10.07
2024-02-15T05:15:28.961Z,10.04
2024-02-15T05:18:31.908Z,10.04
2024-02-15T05:21:34.963Z,10.05
2024-02-15T05:24:36.843Z,10.07
2024-02-15T05:27:38.631Z,10.08
2024-02-15T05:30:41.600Z,10.02
2024-02-15T05:33:45.250Z,10.06
2024-02-15T05:36:49.272Z,10.04
2024-02-15T05:39:54.908Z,10.04
2024-02-15T05:42:57.112Z,10.05
2024-02-15T05:46:01.071Z,10.08
2024-02-15T05:49:05.878Z,10.04
2024-02-15T05:52:07.893Z,10.00
2024-02-15T05:55:09.549Z,9.97
2024-02-15T05:58:12.275Z,9.95
2024-02-15T06:01:15.436Z,9.96
2024-02-15T06:04:18.085Z,9.97
2024-02-15T06:07:20.241Z,9.98
2024-02-15T06:10:21.949Z,10.00
2024-02-15T06:13:23.974Z,9.97
2024-02-15T06:16:27.344Z,9.94
2024-02-15T06:19:29.237Z,9.94
2024-02-15T06:22:31.891Z,9.91
2024-02-15T06:25:33.584Z,9.95
2024-02-15T06:28:53.577Z,9.92
2024-02-15T06:32:15.200Z,9.90
2024-02-15T06:35:35.329Z,9.88
2024-02-15T06:38:57.301Z,9.89
2024-02-15T06:41:58.967Z,9.91
2024-02-15T06:45:00.690Z,9.94
2024-02-15T06:48:04.252Z,9.90
2024-02-15T06:51:06.974Z,9.89
2024-02-15T06:54:09.013Z,9.86
2024-02-15T06:57:10.945Z,9.83
2024-02-15T07:00:16.976Z,9.81
2024-02-15T07:03:20.258Z,9.78
2024-02-15T07:06:22.958Z,9.75
2024-02-15T07:09:25.812Z,9.72
2024-02-15T07:12:27.635Z,9.72
2024-02-15T07:15:29.446Z,9.73
2024-02-15T07:18:32.565Z,9.74
2024-02-15T07:21:34.225Z,9.76
2024-02-15T07:24:36.639Z,9.76
2024-02-15T07:27:38.387Z,9.77
2024-02-15T07:30:40.200Z,9.79
2024-02-15T07:33:44.524Z,9.79
2024-02-15T07:36:47.729Z,9.81
2024-02-15T07:39:49.423Z,9.81
2024-02-15T07:42:53.200Z,9.84
2024-02-15T07:45:54.853Z,9.85
2024-02-15T07:48:58.384Z,9.86
2024-02-15T07:52:01.723Z,9.85
2024-02-15T07:55:06.922Z,9.85
2024-02-15T07:58:08.574Z,9.84
2024-02-15T08:01:10.625Z,9.86
2024-02-15T08:04:16.069Z,9.88
2024-02-15T08:07:21.736Z,9.89
2024-02-15T08:10:23.353Z,9.88
2024-02-15T08:13:29.410Z,9.88
2024-02-15T08:16:31.145Z,9.88
2024-02-15T08:19:34.338Z,9.90
2024-02-15T08:22:36.365Z,9.93
2024-02-15T08:25:39.217Z,9.96
2024-02-15T08:28:40.802Z,10.01
2024-02-15T08:31:42.787Z,10.02
2024-02-15T08:34:45.855Z,10.06
2024-02-15T08:37:49.506Z,10.09
2024-02-15T08:40:51.418Z,10.09
2024-02-15T08:43:54.246Z,10.13
2024-02-15T08:46:56.936Z,10.20
2024-02-15T08:50:00.356Z,10.26
2024-02-15T08:53:02.881Z,10.30
2024-02-15T08:56:04.837Z,10.33
2024-02-15T08:59:06.564Z,10.36
2024-02-15T09:02:08.233Z,10.42
2024-02-15T09:05:11.386Z,10.42
2024-02-15T09:08:14.005Z,10.43
2024-02-15T09:11:15.883Z,10.44
2024-02-15T09:14:17.437Z,10.46
2024-02-15T09:17:19.099Z,10.48
2024-02-15T09:20:22.215Z,10.51
2024-02-15T09:23:24.911Z,10.55
2024-02-15T09:26:26.929Z,10.57
2024-02-15T09:29:28.696Z,10.57
2024-02-15T09:32:30.323Z,10.57
2024-02-15T09:35:33.396Z,10.56
2024-02-15T09:38:35.141Z,10.57
2024-02-15T09:41:36.914Z,10.57
2024-02-15T09:44:38.806Z,10.55
2024-02-15T09:47:43.569Z,10.52
2024-02-15T09:50:49.707Z,10.52
2024-02-15T09:53:51.484Z,10.50
2024-02-15T09:56:53.648Z,10.44
2024-02-15T09:59:55.577Z,10.42
2024-02-15T10:02:57.737Z,10.39
2024-02-15T10:06:01.027Z,10.36
2024-02-15T10:09:21.422Z,10.37
2024-02-15T10:12:23.523Z,10.38
2024-02-15T10:15:32.088Z,10.40
2024-02-15T10:18:35.109Z,10.42
2024-02-15T10:21:40.050Z,10.45
2024-02-15T10:24:42.273Z,10.49
2024-02-15T10:27:47.747Z,10.50
2024-02-15T10:30:51.384Z,10.49
2024-02-15T10:33:53.807Z,10.48
2024-02-15T10:37:11.093Z,10.44
2024-02-15T10:40:14.566Z,10.40
2024-02-15T10:43:17.885Z,10.39
2024-02-15T10:46:20.425Z,10.42
2024-02-15T10:49:23.292Z,10.43
2024-02-15T10:52:31.497Z,10.45
2024-02-15T10:55:37.245Z,10.52
2024-02-15T10:58:45.397Z,10.60
2024-02-15T11:01:51.596Z,10.61
2024-02-15T11:04:57.650Z,10.58
2024-02-15T11:08:01.098Z,10.55
2024-02-15T11:11:06.002Z,10.52
2024-02-15T11:14:26.645Z,10.45
2024-02-15T11:17:50.407Z,10.37
2024-02-15T11:20:54.170Z,10.30
2024-02-15T11:23:57.427Z,10.23
2024-02-15T11:26:59.608Z,10.21
2024-02-15T11:30:11.515Z,10.18
2024-02-15T11:33:28.179Z,10.15
2024-02-15T11:36:33.977Z,10.13
2024-02-15T11:39:45.044Z,10.11
2024-02-15T11:42:47.474Z,10.08
2024-02-15T11:45:53.064Z,10.07
2024-02-15T11:48:55.694Z,10.05
2024-02-15T11:51:58.768Z,10.04
2024-02-15T11:55:11.216Z,10.03
2024-02-15T11:58:15.770Z,10.00
2024-02-15T12:01:36.193Z,10.02
2024-02-15T12:04:58.432Z,10.00
2024-02-15T12:08:18.950Z,10.02
2024-02-15T12:11:40.540Z,10.03
2024-02-15T12:15:00.867Z,10.03
2024-02-15T12:18:34.197Z,10.03
2024-02-15T12:21:37.091Z,10.03
2024-02-15T12:24:38.862Z,10.03
2024-02-15T12:27:44.199Z,10.04
2024-02-15T12:30:45.995Z,10.06
2024-02-15T12:33:50.006Z,10.07
2024-02-15T12:36:53.663Z,10.11
2024-02-15T12:39:55.412Z,10.16
2024-02-15T12:42:58.556Z,10.23
2024-02-15T12:46:00.738Z,10.31
2024-02-15T12:49:14.780Z,10.41
2024-02-15T12:52:36.816Z,10.48
2024-02-15T12:55:39.440Z,10.53
2024-02-15T12:58:44.648Z,10.56
2024-02-15T13:01:47.983Z,10.57
2024-02-15T13:04:49.864Z,10.60
2024-02-15T13:07:52.048Z,10.63
2024-02-15T13:10:54.037Z,10.63
2024-02-15T13:13:57.966Z,10.66
2024-02-15T13:17:00.195Z,10.68
2024-02-15T13:20:13.967Z,10.71
2024-02-15T13:23:24.112Z,10.72
2024-02-15T13:26:26.955Z,10.74
2024-02-15T13:29:30.307Z,10.76
2024-02-15T13:32:32.046Z,10.76
2024-02-15T13:35:33.991Z,10.76
2024-02-15T13:38:38.066Z,10.74
2024-02-15T13:41:39.944Z,10.77
2024-02-15T13:44:43.215Z,10.78
2024-02-15T13:47:48.805Z,10.80
2024-02-15T13:50:54.076Z,10.81
2024-02-15T13:53:57.511Z,10.81
2024-02-15T13:56:59.332Z,10.84
2024-02-15T14:00:02.669Z,10.86
2024-02-15T14:03:16.799Z,10.89
2024-02-15T14:06:18.955Z,10.91
2024-02-15T14:09:20.886Z,10.91
2024-02-15T14:12:22.548Z,10.89
2024-02-15T14:15:25.990Z,10.86
2024-02-15T14:18:29.393Z,10.83
2024-02-15T14:21:34.107Z,10.84
2024-02-15T14:24:35.738Z,10.82
2024-02-15T14:27:38.705Z,10.84
2024-02-15T14:31:00.295Z,10.84
2024-02-15T14:34:02.061Z,10.84
2024-02-15T14:37:07.188Z,10.84
2024-02-15T14:40:09.558Z,10.87
2024-02-15T14:46:20.611Z,10.91
2024-02-15T14:49:23.735Z,10.92
2024-02-15T14:52:25.746Z,10.92
2024-02-15T14:55:27.607Z,10.93
2024-02-15T14:58:29.356Z,10.93
2024-02-15T15:01:32.390Z,10.93
2024-02-15T15:04:48.396Z,10.92
2024-02-15T15:08:08.695Z,10.93
2024-02-15T15:11:29.307Z,10.94
2024-02-15T15:14:31.038Z,10.94
2024-02-15T15:17:35.317Z,10.97
2024-02-15T15:20:38.417Z,10.98
2024-02-15T15:23:40.627Z,10.97
2024-02-15T15:26:42.588Z,10.97
2024-02-15T15:29:44.408Z,10.99
2024-02-15T15:32:47.758Z,10.95
2024-02-15T15:35:50.093Z,10.95
2024-02-15T15:38:52.192Z,10.95
2024-02-15T15:41:57.092Z,10.96
2024-02-15T15:44:58.826Z,10.93
2024-02-15T15:48:02.112Z,10.94
2024-02-15T15:51:06.468Z,10.96
2024-02-15T15:54:09.173Z,10.93
2024-02-15T15:57:10.876Z,10.92
2024-02-15T16:00:17.390Z,10.93
2024-02-15T16:03:21.896Z,10.91
2024-02-15T16:06:23.772Z,10.89
2024-02-15T16:09:25.635Z,10.87
2024-02-15T16:12:27.569Z,10.83
2024-02-15T16:15:29.858Z,10.83
2024-02-15T16:18:33.482Z,10.85
2024-02-15T16:21:35.398Z,10.85
2024-02-15T16:24:37.150Z,10.85
2024-02-15T16:27:39.775Z,10.88
2024-02-15T16:30:41.465Z,10.86
2024-02-15T16:33:44.738Z,10.85
2024-02-15T16:36:46.700Z,10.86
2024-02-15T16:39:48.393Z,10.89
2024-02-15T16:42:50.071Z,10.88
2024-02-15T16:45:51.832Z,10.87
2024-02-15T16:48:57.231Z,10.85
2024-02-15T16:51:59.178Z,10.90
2024-02-15T16:55:01.731Z,10.88
2024-02-15T16:58:04.688Z,10.92
2024-02-15T17:01:06.927Z,10.91
2024-02-15T17:04:10.531Z,10.90
2024-02-15T17:07:12.346Z,10.88
2024-02-15T17:10:14.169Z,10.90
2024-02-15T17:13:15.940Z,10.89
2024-02-15T17:16:20.769Z,10.90
2024-02-15T17:19:25.670Z,10.86
2024-02-15T17:22:29.018Z,10.85
2024-02-15T17:25:30.715Z,10.88
2024-02-15T17:28:32.408Z,10.88
2024-02-15T17:31:34.603Z,10.88
2024-02-15T17:34:37.627Z,10.82
2024-02-15T17:37:39.430Z,10.85
2024-02-15T17:40:43.424Z,10.86
2024-02-15T17:43:45.616Z,10.82
2024-02-15T17:46:47.473Z,10.78
2024-02-15T17:49:50.443Z,10.77
2024-02-15T17:52:52.493Z,10.79
2024-02-15T17:55:57.293Z,10.75
2024-02-15T17:58:58.924Z,10.79
2024-02-15T18:02:00.827Z,10.77
2024-02-15T18:05:08.766Z,10.73
2024-02-15T18:08:12.518Z,10.77
2024-02-15T18:11:14.668Z,10.77
2024-02-15T18:14:17.876Z,10.81
2024-02-15T18:17:20.041Z,10.80
2024-02-15T18:20:23.992Z,10.80
2024-02-15T18:23:25.680Z,10.86
2024-02-15T18:26:27.371Z,10.81
2024-02-15T18:29:29.045Z,10.73
2024-02-15T18:32:30.696Z,10.67
2024-02-15T18:35:35.222Z,10.72
2024-02-15T18:38:37.120Z,10.74
2024-02-15T18:41:39.919Z,10.76
2024-02-15T18:44:41.674Z,10.77
2024-02-15T18:47:43.493Z,10.79
2024-02-15T18:50:46.911Z,10.80
2024-02-15T18:53:49.673Z,10.74
2024-02-15T18:56:56.211Z,10.74
2024-02-15T18:59:59.631Z,10.76
2024-02-15T19:03:02.953Z,10.72
2024-02-15T19:06:06.519Z,10.72
2024-02-15T19:09:08.377Z,10.67
2024-02-15T19:12:10.383Z,10.77
2024-02-15T19:15:12.169Z,10.79
2024-02-15T19:18:13.945Z,10.80
2024-02-15T19:21:17.081Z,10.84
2024-02-15T19:24:21.406Z,10.81
2024-02-15T19:27:23.767Z,10.82
2024-02-15T19:30:26.819Z,10.79
2024-02-15T19:33:33.748Z,10.82
2024-02-15T19:36:43.778Z,10.86
2024-02-15T19:39:50.066Z,10.89
2024-02-15T19:42:51.783Z,10.94
2024-02-15T19:45:56.184Z,11.00
2024-02-15T19:48:57.881Z,11.01
2024-02-15T19:52:02.119Z,10.97
2024-02-15T19:55:04.342Z,11.00
2024-02-15T19:58:05.982Z,11.01
2024-02-15T20:01:07.659Z,10.96
2024-02-15T20:04:09.589Z,10.95
2024-02-15T20:07:12.810Z,10.90
2024-02-15T20:10:14.673Z,10.89
2024-02-15T20:13:16.360Z,10.83
2024-02-15T20:16:22.939Z,10.87
2024-02-15T20:19:26.996Z,10.79
2024-02-15T20:22:30.350Z,10.83
2024-02-15T20:25:32.068Z,10.80
2024-02-15T20:28:33.717Z,10.76
2024-02-15T20:31:35.614Z,10.74
2024-02-15T20:34:37.857Z,10.70
2024-02-15T20:37:40.947Z,10.67
2024-02-15T20:40:42.763Z,10.65
2024-02-15T20:43:44.368Z,10.66
2024-02-15T20:46:46.095Z,10.65
2024-02-15T20:49:47.933Z,10.61
2024-02-15T20:52:50.938Z,10.60
2024-02-15T20:55:52.824Z,10.59
2024-02-15T20:58:54.603Z,10.57
2024-02-15T21:01:56.420Z,10.53
2024-02-15T21:04:58.069Z,10.67
2024-02-15T21:08:01.087Z,10.60
2024-02-15T21:11:02.813Z,10.73
2024-02-15T21:14:04.547Z,10.85
2024-02-15T21:17:08.002Z,10.77
2024-02-15T21:20:13.318Z,10.74
2024-02-15T21:23:16.479Z,10.84
2024-02-15T21:26:18.222Z,10.79
2024-02-15T21:29:21.088Z,10.79
2024-02-15T21:32:22.717Z,10.83
2024-02-15T21:35:25.615Z,10.81
2024-02-15T21:38:28.730Z,10.82
2024-02-15T21:41:30.434Z,10.76
2024-02-15T21:44:32.085Z,10.61
2024-02-15T21:47:34.572Z,10.53
2024-02-15T21:50:36.270Z,10.56
2024-02-15T21:53:42.158Z,10.56
2024-02-15T21:56:43.941Z,10.57
2024-02-15T21:59:45.629Z,10.59
2024-02-15T22:02:47.295Z,10.53
2024-02-15T22:05:49.316Z,10.47
2024-02-15T22:08:52.477Z,10.45
2024-02-15T22:11:55.063Z,10.44
2024-02-15T22:14:56.750Z,10.39
2024-02-15T22:17:59.549Z,10.47
2024-02-15T22:21:03.195Z,10.52
2024-02-15T22:24:09.186Z,10.59
2024-02-15T22:27:11.495Z,10.75
2024-02-15T22:30:14.004Z,10.84
2024-02-15T22:33:16.844Z,10.85
2024-02-15T22:36:22.507Z,10.90
2024-02-15T22:39:25.665Z,10.91
2024-02-15T22:42:27.691Z,10.93
2024-02-15T22:45:29.931Z,10.90
2024-02-15T22:48:31.673Z,10.82
2024-02-15T22:51:37.599Z,10.67
2024-02-15T22:54:42.927Z,10.64
2024-02-15T22:57:44.533Z,10.50
2024-02-15T23:00:46.211Z,10.43
2024-02-15T23:03:47.845Z,10.35
2024-02-15T23:06:49.550Z,10.40
2024-02-15T23:09:54.193Z,10.46
2024-02-15T23:12:55.856Z,10.38
2024-02-15T23:16:00.628Z,10.35
2024-02-15T23:19:02.526Z,10.35
2024-02-15T23:22:04.622Z,10.39
2024-02-15T23:25:08.150Z,10.36
2024-02-15T23:28:10.278Z,10.33
2024-02-15T23:31:13.457Z,10.22
2024-02-15T23:34:15.305Z,10.18
2024-02-15T23:37:35.666Z,10.20
2024-02-15T23:40:38.566Z,10.18
2024-02-15T23:43:40.240Z,10.24
2024-02-15T23:46:41.882Z,10.20
2024-02-15T23:49:43.768Z,10.20
2024-02-15T23:52:47.051Z,10.26
2024-02-15T23:55:50.098Z,10.20
2024-02-15T23:58:52.276Z,10.13
